sensor_id;sensor_type;location;lat;lon;timestamp;P1;durP1;ratioP1;P2;durP2;ratioP2
20535;SDS011;10426;49.420;8.390;2023-03-08T00:00:35;6.50;;;5.90;;
20535;SDS011;10426;49.420;8.390;2023-03-08T00:03:02;6.57;;;5.97;;
20535;SDS011;10426;49.420;8.390;2023-03-08T00:05:29;6.88;;;6.25;;
20535;SDS011;10426;49.420;8.390;2023-03-08T00:07:56;6.80;;;6.10;;
20535;SDS011;10426;49.420;8.390;2023-03-08T00:10:23;7.07;;;6.37;;
20535;SDS011;10426;49.420;8.390;2023-03-08T00:12:50;7.00;;;6.40;;
20535;SDS011;10426;49.420;8.390;2023-03-08T00:15:17;7.22;;;6.53;;
20535;SDS011;10426;49.420;8.390;2023-03-08T00:17:43;6.65;;;6.05;;
20535;SDS011;10426;49.420;8.390;2023-03-08T00:20:11;7.13;;;6.43;;
20535;SDS011;10426;49.420;8.390;2023-03-08T00:22:38;6.93;;;6.32;;
20535;SDS011;10426;49.420;8.390;2023-03-08T00:25:07;7.28;;;6.55;;
20535;SDS011;10426;49.420;8.390;2023-03-08T00:27:34;7.05;;;6.28;;
20535;SDS011;10426;49.420;8.390;2023-03-08T00:30:01;7.07;;;6.38;;
20535;SDS011;10426;49.420;8.390;2023-03-08T00:32:28;7.13;;;6.53;;
20535;SDS011;10426;49.420;8.390;2023-03-08T00:34:55;7.00;;;6.32;;
20535;SDS011;10426;49.420;8.390;2023-03-08T00:37:22;7.30;;;6.47;;
20535;SDS011;10426;49.420;8.390;2023-03-08T00:39:49;7.38;;;6.65;;
20535;SDS011;10426;49.420;8.390;2023-03-08T00:42:17;7.78;;;6.95;;
20535;SDS011;10426;49.420;8.390;2023-03-08T00:44:44;7.43;;;6.72;;
20535;SDS011;10426;49.420;8.390;2023-03-08T00:47:10;7.18;;;6.47;;
20535;SDS011;10426;49.420;8.390;2023-03-08T00:49:37;7.35;;;6.60;;
20535;SDS011;10426;49.420;8.390;2023-03-08T00:52:04;7.78;;;7.07;;
20535;SDS011;10426;49.420;8.390;2023-03-08T00:54:31;7.82;;;6.80;;
20535;SDS011;10426;49.420;8.390;2023-03-08T00:56:57;7.20;;;6.60;;
20535;SDS011;10426;49.420;8.390;2023-03-08T00:59:25;7.15;;;6.45;;
20535;SDS011;10426;49.420;8.390;2023-03-08T01:01:52;7.30;;;6.60;;
20535;SDS011;10426;49.420;8.390;2023-03-08T01:04:18;7.70;;;6.90;;
20535;SDS011;10426;49.420;8.390;2023-03-08T01:06:45;7.65;;;6.95;;
20535;SDS011;10426;49.420;8.390;2023-03-08T01:09:12;7.85;;;7.10;;
20535;SDS011;10426;49.420;8.390;2023-03-08T01:11:38;7.95;;;7.20;;
20535;SDS011;10426;49.420;8.390;2023-03-08T01:14:05;7.97;;;7.27;;
20535;SDS011;10426;49.420;8.390;2023-03-08T01:16:34;7.60;;;6.90;;
20535;SDS011;10426;49.420;8.390;2023-03-08T01:19:03;8.10;;;7.30;;
20535;SDS011;10426;49.420;8.390;2023-03-08T01:21:30;8.15;;;6.88;;
20535;SDS011;10426;49.420;8.390;2023-03-08T01:23:57;7.65;;;6.95;;
20535;SDS011;10426;49.420;8.390;2023-03-08T01:26:24;7.35;;;6.65;;
20535;SDS011;10426;49.420;8.390;2023-03-08T01:28:51;7.80;;;7.00;;
20535;SDS011;10426;49.420;8.390;2023-03-08T01:31:19;7.87;;;7.07;;
20535;SDS011;10426;49.420;8.390;2023-03-08T01:33:47;7.53;;;6.82;;
20535;SDS011;10426;49.420;8.390;2023-03-08T01:36:14;7.80;;;7.05;;
20535;SDS011;10426;49.420;8.390;2023-03-08T01:38:41;7.90;;;7.00;;
20535;SDS011;10426;49.420;8.390;2023-03-08T01:41:11;7.38;;;6.57;;
20535;SDS011;10426;49.420;8.390;2023-03-08T01:43:39;7.53;;;6.82;;
20535;SDS011;10426;49.420;8.390;2023-03-08T01:46:17;6.90;;;6.30;;
20535;SDS011;10426;49.420;8.390;2023-03-08T01:48:44;7.60;;;6.90;;
20535;SDS011;10426;49.420;8.390;2023-03-08T01:51:14;7.82;;;7.07;;
20535;SDS011;10426;49.420;8.390;2023-03-08T01:53:43;7.78;;;7.00;;
20535;SDS011;10426;49.420;8.390;2023-03-08T01:56:10;7.53;;;6.85;;
20535;SDS011;10426;49.420;8.390;2023-03-08T01:58:38;7.90;;;7.10;;
20535;SDS011;10426;49.420;8.390;2023-03-08T02:01:05;8.70;;;7.28;;
20535;SDS011;10426;49.420;8.390;2023-03-08T02:03:32;7.90;;;7.10;;
20535;SDS011;10426;49.420;8.390;2023-03-08T02:05:58;7.85;;;7.05;;
20535;SDS011;10426;49.420;8.390;2023-03-08T02:08:26;7.65;;;6.90;;
20535;SDS011;10426;49.420;8.390;2023-03-08T02:10:53;7.60;;;6.90;;
20535;SDS011;10426;49.420;8.390;2023-03-08T02:13:20;17.00;;;10.60;;
20535;SDS011;10426;49.420;8.390;2023-03-08T02:15:47;15.57;;;10.13;;
20535;SDS011;10426;49.420;8.390;2023-03-08T02:18:14;20.13;;;11.73;;
20535;SDS011;10426;49.420;8.390;2023-03-08T02:20:41;9.95;;;8.27;;
20535;SDS011;10426;49.420;8.390;2023-03-08T02:23:10;8.00;;;7.20;;
20535;SDS011;10426;49.420;8.390;2023-03-08T02:25:37;7.22;;;6.45;;
20535;SDS011;10426;49.420;8.390;2023-03-08T02:28:04;7.20;;;6.60;;
20535;SDS011;10426;49.420;8.390;2023-03-08T02:30:33;8.90;;;6.95;;
20535;SDS011;10426;49.420;8.390;2023-03-08T02:32:59;7.38;;;6.60;;
20535;SDS011;10426;49.420;8.390;2023-03-08T02:35:27;7.75;;;7.05;;
20535;SDS011;10426;49.420;8.390;2023-03-08T02:37:53;7.28;;;6.60;;
20535;SDS011;10426;49.420;8.390;2023-03-08T02:40:21;8.07;;;7.30;;
20535;SDS011;10426;49.420;8.390;2023-03-08T02:42:48;8.43;;;7.25;;
20535;SDS011;10426;49.420;8.390;2023-03-08T02:45:15;7.68;;;6.93;;
20535;SDS011;10426;49.420;8.390;2023-03-08T02:47:41;8.05;;;7.35;;
20535;SDS011;10426;49.420;8.390;2023-03-08T02:50:08;7.40;;;6.80;;
20535;SDS011;10426;49.420;8.390;2023-03-08T02:52:35;8.35;;;7.07;;
20535;SDS011;10426;49.420;8.390;2023-03-08T02:55:02;7.55;;;6.85;;
20535;SDS011;10426;49.420;8.390;2023-03-08T02:57:30;7.93;;;7.13;;
20535;SDS011;10426;49.420;8.390;2023-03-08T02:59:56;7.70;;;6.90;;
20535;SDS011;10426;49.420;8.390;2023-03-08T03:02:23;7.65;;;6.95;;
20535;SDS011;10426;49.420;8.390;2023-03-08T03:04:49;7.50;;;6.78;;
20535;SDS011;10426;49.420;8.390;2023-03-08T03:07:16;7.43;;;6.75;;
20535;SDS011;10426;49.420;8.390;2023-03-08T03:09:44;7.25;;;6.65;;
20535;SDS011;10426;49.420;8.390;2023-03-08T03:12:11;7.30;;;6.60;;
20535;SDS011;10426;49.420;8.390;2023-03-08T03:14:39;7.17;;;6.57;;
20535;SDS011;10426;49.420;8.390;2023-03-08T03:17:06;8.10;;;6.78;;
20535;SDS011;10426;49.420;8.390;2023-03-08T03:19:32;7.75;;;7.05;;
20535;SDS011;10426;49.420;8.390;2023-03-08T03:21:59;8.87;;;7.90;;
20535;SDS011;10426;49.420;8.390;2023-03-08T03:24:26;8.05;;;7.25;;
20535;SDS011;10426;49.420;8.390;2023-03-08T03:26:52;7.57;;;6.88;;
20535;SDS011;10426;49.420;8.390;2023-03-08T03:29:19;8.10;;;7.30;;
20535;SDS011;10426;49.420;8.390;2023-03-08T03:31:47;7.60;;;6.90;;
20535;SDS011;10426;49.420;8.390;2023-03-08T03:34:14;7.25;;;6.55;;
20535;SDS011;10426;49.420;8.390;2023-03-08T03:36:40;7.45;;;6.85;;
20535;SDS011;10426;49.420;8.390;2023-03-08T03:39:07;7.70;;;7.00;;
20535;SDS011;10426;49.420;8.390;2023-03-08T03:41:34;7.73;;;7.07;;
20535;SDS011;10426;49.420;8.390;2023-03-08T03:44:00;7.82;;;7.03;;
20535;SDS011;10426;49.420;8.390;2023-03-08T03:46:27;7.97;;;7.28;;
20535;SDS011;10426;49.420;8.390;2023-03-08T03:48:55;7.97;;;7.18;;
20535;SDS011;10426;49.420;8.390;2023-03-08T03:51:21;9.30;;;8.30;;
20535;SDS011;10426;49.420;8.390;2023-03-08T03:53:48;10.50;;;8.20;;
20535;SDS011;10426;49.420;8.390;2023-03-08T03:56:15;10.05;;;8.57;;
20535;SDS011;10426;49.420;8.390;2023-03-08T03:58:42;13.18;;;9.52;;
20535;SDS011;10426;49.420;8.390;2023-03-08T04:01:10;8.97;;;7.60;;
20535;SDS011;10426;49.420;8.390;2023-03-08T04:03:37;7.85;;;7.15;;
20535;SDS011;10426;49.420;8.390;2023-03-08T04:06:06;7.80;;;7.00;;
20535;SDS011;10426;49.420;8.390;2023-03-08T04:08:33;8.20;;;7.40;;
20535;SDS011;10426;49.420;8.390;2023-03-08T04:10:59;8.15;;;7.35;;
20535;SDS011;10426;49.420;8.390;2023-03-08T04:13:26;9.47;;;8.17;;
20535;SDS011;10426;49.420;8.390;2023-03-08T04:15:53;8.48;;;7.60;;
20535;SDS011;10426;49.420;8.390;2023-03-08T04:18:19;8.20;;;7.40;;
20535;SDS011;10426;49.420;8.390;2023-03-08T04:20:46;8.25;;;7.45;;
20535;SDS011;10426;49.420;8.390;2023-03-08T04:23:14;8.50;;;7.70;;
20535;SDS011;10426;49.420;8.390;2023-03-08T04:25:40;8.30;;;7.53;;
20535;SDS011;10426;49.420;8.390;2023-03-08T04:28:07;8.60;;;7.80;;
20535;SDS011;10426;49.420;8.390;2023-03-08T04:30:33;8.00;;;7.30;;
20535;SDS011;10426;49.420;8.390;2023-03-08T04:33:00;8.05;;;7.35;;
20535;SDS011;10426;49.420;8.390;2023-03-08T04:35:27;8.27;;;7.47;;
20535;SDS011;10426;49.420;8.390;2023-03-08T04:37:55;8.80;;;7.90;;
20535;SDS011;10426;49.420;8.390;2023-03-08T04:40:23;8.13;;;7.40;;
20535;SDS011;10426;49.420;8.390;2023-03-08T04:42:50;9.13;;;8.23;;
20535;SDS011;10426;49.420;8.390;2023-03-08T04:45:17;13.20;;;8.80;;
20535;SDS011;10426;49.420;8.390;2023-03-08T04:47:43;10.87;;;8.93;;
20535;SDS011;10426;49.420;8.390;2023-03-08T04:50:10;9.80;;;8.45;;
20535;SDS011;10426;49.420;8.390;2023-03-08T04:52:37;9.45;;;8.45;;
20535;SDS011;10426;49.420;8.390;2023-03-08T04:55:03;10.13;;;9.02;;
20535;SDS011;10426;49.420;8.390;2023-03-08T04:57:32;8.85;;;8.05;;
20535;SDS011;10426;49.420;8.390;2023-03-08T04:59:59;9.43;;;8.20;;
20535;SDS011;10426;49.420;8.390;2023-03-08T05:02:26;9.40;;;8.40;;
20535;SDS011;10426;49.420;8.390;2023-03-08T05:04:52;10.10;;;9.10;;
20535;SDS011;10426;49.420;8.390;2023-03-08T05:07:19;10.07;;;9.02;;
20535;SDS011;10426;49.420;8.390;2023-03-08T05:09:45;10.20;;;9.15;;
20535;SDS011;10426;49.420;8.390;2023-03-08T05:12:12;9.88;;;8.88;;
20535;SDS011;10426;49.420;8.390;2023-03-08T05:14:40;10.52;;;9.52;;
20535;SDS011;10426;49.420;8.390;2023-03-08T05:17:06;11.23;;;9.32;;
20535;SDS011;10426;49.420;8.390;2023-03-08T05:19:33;11.30;;;9.23;;
20535;SDS011;10426;49.420;8.390;2023-03-08T05:22:00;11.50;;;10.30;;
20535;SDS011;10426;49.420;8.390;2023-03-08T05:24:26;11.40;;;10.20;;
20535;SDS011;10426;49.420;8.390;2023-03-08T05:26:53;11.52;;;9.70;;
20535;SDS011;10426;49.420;8.390;2023-03-08T05:29:20;12.98;;;10.38;;
20535;SDS011;10426;49.420;8.390;2023-03-08T05:31:49;11.35;;;10.10;;
20535;SDS011;10426;49.420;8.390;2023-03-08T05:34:16;10.77;;;9.75;;
20535;SDS011;10426;49.420;8.390;2023-03-08T05:36:42;11.33;;;10.20;;
20535;SDS011;10426;49.420;8.390;2023-03-08T05:39:09;10.73;;;9.60;;
20535;SDS011;10426;49.420;8.390;2023-03-08T05:41:36;11.30;;;10.17;;
20535;SDS011;10426;49.420;8.390;2023-03-08T05:44:02;10.90;;;9.65;;
20535;SDS011;10426;49.420;8.390;2023-03-08T05:46:29;10.90;;;9.55;;
20535;SDS011;10426;49.420;8.390;2023-03-08T05:48:57;11.40;;;9.82;;
20535;SDS011;10426;49.420;8.390;2023-03-08T05:51:24;12.35;;;10.10;;
20535;SDS011;10426;49.420;8.390;2023-03-08T05:53:50;11.38;;;10.18;;
20535;SDS011;10426;49.420;8.390;2023-03-08T05:56:17;10.77;;;9.73;;
20535;SDS011;10426;49.420;8.390;2023-03-08T05:58:45;10.68;;;9.05;;
20535;SDS011;10426;49.420;8.390;2023-03-08T06:01:12;10.53;;;9.00;;
20535;SDS011;10426;49.420;8.390;2023-03-08T06:03:40;14.18;;;9.23;;
20535;SDS011;10426;49.420;8.390;2023-03-08T06:06:08;12.57;;;10.05;;
20535;SDS011;10426;49.420;8.390;2023-03-08T06:08:35;10.73;;;9.63;;
20535;SDS011;10426;49.420;8.390;2023-03-08T06:11:02;10.60;;;9.52;;
20535;SDS011;10426;49.420;8.390;2023-03-08T06:13:29;12.15;;;9.63;;
20535;SDS011;10426;49.420;8.390;2023-03-08T06:15:56;11.10;;;9.90;;
20535;SDS011;10426;49.420;8.390;2023-03-08T06:18:23;11.20;;;9.90;;
20535;SDS011;10426;49.420;8.390;2023-03-08T06:20:54;10.80;;;9.70;;
20535;SDS011;10426;49.420;8.390;2023-03-08T06:23:22;10.63;;;9.63;;
20535;SDS011;10426;49.420;8.390;2023-03-08T06:25:48;10.13;;;9.10;;
20535;SDS011;10426;49.420;8.390;2023-03-08T06:28:15;11.60;;;9.88;;
20535;SDS011;10426;49.420;8.390;2023-03-08T06:30:42;9.95;;;8.95;;
20535;SDS011;10426;49.420;8.390;2023-03-08T06:33:08;11.50;;;9.32;;
20535;SDS011;10426;49.420;8.390;2023-03-08T06:35:35;9.90;;;8.90;;
20535;SDS011;10426;49.420;8.390;2023-03-08T06:38:01;9.57;;;8.55;;
20535;SDS011;10426;49.420;8.390;2023-03-08T06:40:29;10.20;;;9.20;;
20535;SDS011;10426;49.420;8.390;2023-03-08T06:42:56;10.18;;;9.15;;
20535;SDS011;10426;49.420;8.390;2023-03-08T06:45:23;9.97;;;8.70;;
20535;SDS011;10426;49.420;8.390;2023-03-08T06:47:49;11.73;;;8.65;;
20535;SDS011;10426;49.420;8.390;2023-03-08T06:50:16;9.52;;;8.57;;
20535;SDS011;10426;49.420;8.390;2023-03-08T06:52:43;10.23;;;9.13;;
20535;SDS011;10426;49.420;8.390;2023-03-08T06:55:09;10.18;;;9.15;;
20535;SDS011;10426;49.420;8.390;2023-03-08T06:57:37;10.73;;;9.30;;
20535;SDS011;10426;49.420;8.390;2023-03-08T07:00:05;9.90;;;8.93;;
20535;SDS011;10426;49.420;8.390;2023-03-08T07:02:33;10.00;;;9.00;;
20535;SDS011;10426;49.420;8.390;2023-03-08T07:05:00;10.33;;;9.30;;
20535;SDS011;10426;49.420;8.390;2023-03-08T07:07:27;9.80;;;8.85;;
20535;SDS011;10426;49.420;8.390;2023-03-08T07:09:53;12.27;;;8.88;;
20535;SDS011;10426;49.420;8.390;2023-03-08T07:12:20;10.35;;;9.25;;
20535;SDS011;10426;49.420;8.390;2023-03-08T07:14:50;10.50;;;8.73;;
20535;SDS011;10426;49.420;8.390;2023-03-08T07:17:16;9.98;;;8.98;;
20535;SDS011;10426;49.420;8.390;2023-03-08T07:19:44;10.32;;;9.05;;
20535;SDS011;10426;49.420;8.390;2023-03-08T07:22:11;10.68;;;9.27;;
20535;SDS011;10426;49.420;8.390;2023-03-08T07:24:38;11.02;;;9.90;;
20535;SDS011;10426;49.420;8.390;2023-03-08T07:27:04;9.70;;;8.70;;
20535;SDS011;10426;49.420;8.390;2023-03-08T07:29:31;10.57;;;9.38;;
20535;SDS011;10426;49.420;8.390;2023-03-08T07:31:59;9.30;;;8.38;;
20535;SDS011;10426;49.420;8.390;2023-03-08T07:34:25;10.15;;;9.15;;
20535;SDS011;10426;49.420;8.390;2023-03-08T07:36:52;10.38;;;9.27;;
20535;SDS011;10426;49.420;8.390;2023-03-08T07:39:19;10.48;;;8.95;;
20535;SDS011;10426;49.420;8.390;2023-03-08T07:41:47;11.00;;;9.63;;
20535;SDS011;10426;49.420;8.390;2023-03-08T07:44:14;10.05;;;9.00;;
20535;SDS011;10426;49.420;8.390;2023-03-08T07:46:41;9.57;;;8.55;;
20535;SDS011;10426;49.420;8.390;2023-03-08T07:49:09;11.20;;;9.57;;
20535;SDS011;10426;49.420;8.390;2023-03-08T07:51:36;11.38;;;9.98;;
20535;SDS011;10426;49.420;8.390;2023-03-08T07:54:02;11.13;;;10.05;;
20535;SDS011;10426;49.420;8.390;2023-03-08T07:56:29;10.43;;;9.40;;
20535;SDS011;10426;49.420;8.390;2023-03-08T07:58:56;10.47;;;9.37;;
20535;SDS011;10426;49.420;8.390;2023-03-08T08:01:22;11.88;;;10.13;;
20535;SDS011;10426;49.420;8.390;2023-03-08T08:03:49;10.68;;;9.57;;
20535;SDS011;10426;49.420;8.390;2023-03-08T08:06:17;11.68;;;10.48;;
20535;SDS011;10426;49.420;8.390;2023-03-08T08:08:44;12.10;;;10.70;;
20535;SDS011;10426;49.420;8.390;2023-03-08T08:11:11;12.85;;;11.55;;
20535;SDS011;10426;49.420;8.390;2023-03-08T08:13:38;17.27;;;12.90;;
20535;SDS011;10426;49.420;8.390;2023-03-08T08:16:05;14.32;;;11.70;;
20535;SDS011;10426;49.420;8.390;2023-03-08T08:18:32;12.67;;;11.30;;
20535;SDS011;10426;49.420;8.390;2023-03-08T08:21:00;14.68;;;12.50;;
20535;SDS011;10426;49.420;8.390;2023-03-08T08:23:28;18.67;;;14.48;;
20535;SDS011;10426;49.420;8.390;2023-03-08T08:25:54;22.40;;;15.80;;
20535;SDS011;10426;49.420;8.390;2023-03-08T08:28:21;19.67;;;15.60;;
20535;SDS011;10426;49.420;8.390;2023-03-08T08:30:54;16.03;;;12.93;;
20535;SDS011;10426;49.420;8.390;2023-03-08T08:33:20;13.60;;;11.93;;
20535;SDS011;10426;49.420;8.390;2023-03-08T08:35:47;13.75;;;12.35;;
20535;SDS011;10426;49.420;8.390;2023-03-08T08:38:16;14.75;;;13.05;;
20535;SDS011;10426;49.420;8.390;2023-03-08T08:40:44;14.13;;;12.70;;
20535;SDS011;10426;49.420;8.390;2023-03-08T08:43:11;14.87;;;13.30;;
20535;SDS011;10426;49.420;8.390;2023-03-08T08:45:41;14.00;;;12.50;;
20535;SDS011;10426;49.420;8.390;2023-03-08T08:48:07;14.30;;;12.90;;
20535;SDS011;10426;49.420;8.390;2023-03-08T08:50:34;14.27;;;12.88;;
20535;SDS011;10426;49.420;8.390;2023-03-08T08:53:00;14.30;;;12.90;;
20535;SDS011;10426;49.420;8.390;2023-03-08T08:55:27;14.95;;;13.35;;
20535;SDS011;10426;49.420;8.390;2023-03-08T08:57:55;14.80;;;13.15;;
20535;SDS011;10426;49.420;8.390;2023-03-08T09:00:22;14.10;;;12.63;;
20535;SDS011;10426;49.420;8.390;2023-03-08T09:02:48;14.05;;;12.63;;
20535;SDS011;10426;49.420;8.390;2023-03-08T09:05:15;13.57;;;12.25;;
20535;SDS011;10426;49.420;8.390;2023-03-08T09:07:41;12.80;;;11.50;;
20535;SDS011;10426;49.420;8.390;2023-03-08T09:10:08;12.65;;;11.35;;
20535;SDS011;10426;49.420;8.390;2023-03-08T09:12:35;13.10;;;11.80;;
20535;SDS011;10426;49.420;8.390;2023-03-08T09:15:04;12.82;;;11.63;;
20535;SDS011;10426;49.420;8.390;2023-03-08T09:17:31;11.98;;;10.85;;
20535;SDS011;10426;49.420;8.390;2023-03-08T09:19:58;12.32;;;11.20;;
20535;SDS011;10426;49.420;8.390;2023-03-08T09:22:25;12.80;;;11.55;;
20535;SDS011;10426;49.420;8.390;2023-03-08T09:24:51;12.75;;;11.45;;
20535;SDS011;10426;49.420;8.390;2023-03-08T09:27:18;12.10;;;10.90;;
20535;SDS011;10426;49.420;8.390;2023-03-08T09:29:45;12.30;;;11.10;;
20535;SDS011;10426;49.420;8.390;2023-03-08T09:32:12;12.07;;;10.98;;
20535;SDS011;10426;49.420;8.390;2023-03-08T09:34:39;11.80;;;10.60;;
20535;SDS011;10426;49.420;8.390;2023-03-08T09:37:06;11.63;;;10.63;;
20535;SDS011;10426;49.420;8.390;2023-03-08T09:39:33;11.27;;;10.15;;
20535;SDS011;10426;49.420;8.390;2023-03-08T09:41:59;11.27;;;10.27;;
20535;SDS011;10426;49.420;8.390;2023-03-08T09:47:16;11.10;;;10.05;;
20535;SDS011;10426;49.420;8.390;2023-03-08T09:49:46;11.45;;;10.07;;
20535;SDS011;10426;49.420;8.390;2023-03-08T09:52:15;11.17;;;10.10;;
20535;SDS011;10426;49.420;8.390;2023-03-08T09:54:43;11.52;;;10.32;;
20535;SDS011;10426;49.420;8.390;2023-03-08T09:57:11;11.43;;;10.30;;
20535;SDS011;10426;49.420;8.390;2023-03-08T09:59:40;11.05;;;9.85;;
20535;SDS011;10426;49.420;8.390;2023-03-08T10:02:16;11.15;;;10.05;;
20535;SDS011;10426;49.420;8.390;2023-03-08T10:04:47;11.03;;;10.03;;
20535;SDS011;10426;49.420;8.390;2023-03-08T10:07:20;11.32;;;10.27;;
20535;SDS011;10426;49.420;8.390;2023-03-08T10:09:52;12.73;;;11.13;;
20535;SDS011;10426;49.420;8.390;2023-03-08T10:12:22;11.02;;;10.02;;
20535;SDS011;10426;49.420;8.390;2023-03-08T10:14:52;10.75;;;9.75;;
20535;SDS011;10426;49.420;8.390;2023-03-08T10:17:20;11.18;;;10.18;;
20535;SDS011;10426;49.420;8.390;2023-03-08T10:19:51;10.90;;;9.90;;
20535;SDS011;10426;49.420;8.390;2023-03-08T10:22:22;10.98;;;9.95;;
20535;SDS011;10426;49.420;8.390;2023-03-08T10:24:51;10.77;;;9.68;;
20535;SDS011;10426;49.420;8.390;2023-03-08T10:27:19;11.27;;;10.20;;
20535;SDS011;10426;49.420;8.390;2023-03-08T10:29:50;11.60;;;10.50;;
20535;SDS011;10426;49.420;8.390;2023-03-08T10:32:17;10.95;;;9.88;;
20535;SDS011;10426;49.420;8.390;2023-03-08T10:34:43;10.82;;;9.73;;
20535;SDS011;10426;49.420;8.390;2023-03-08T10:37:11;10.77;;;9.85;;
20535;SDS011;10426;49.420;8.390;2023-03-08T10:39:46;10.90;;;9.95;;
20535;SDS011;10426;49.420;8.390;2023-03-08T10:42:17;10.77;;;9.77;;
20535;SDS011;10426;49.420;8.390;2023-03-08T10:44:46;11.23;;;10.13;;
20535;SDS011;10426;49.420;8.390;2023-03-08T10:47:21;11.95;;;10.45;;
20535;SDS011;10426;49.420;8.390;2023-03-08T10:49:48;10.52;;;9.63;;
20535;SDS011;10426;49.420;8.390;2023-03-08T10:52:22;10.38;;;9.45;;
20535;SDS011;10426;49.420;8.390;2023-03-08T10:54:58;11.43;;;10.30;;
20535;SDS011;10426;49.420;8.390;2023-03-08T10:57:25;10.52;;;9.50;;
20535;SDS011;10426;49.420;8.390;2023-03-08T10:59:51;11.30;;;10.07;;
20535;SDS011;10426;49.420;8.390;2023-03-08T11:02:19;11.68;;;10.48;;
20535;SDS011;10426;49.420;8.390;2023-03-08T11:04:50;11.73;;;10.52;;
20535;SDS011;10426;49.420;8.390;2023-03-08T11:07:18;11.65;;;10.45;;
20535;SDS011;10426;49.420;8.390;2023-03-08T11:09:49;11.15;;;10.05;;
20535;SDS011;10426;49.420;8.390;2023-03-08T11:12:22;12.40;;;11.30;;
20535;SDS011;10426;49.420;8.390;2023-03-08T11:14:49;11.63;;;10.52;;
20535;SDS011;10426;49.420;8.390;2023-03-08T11:17:16;11.77;;;10.77;;
20535;SDS011;10426;49.420;8.390;2023-03-08T11:19:47;12.88;;;11.18;;
20535;SDS011;10426;49.420;8.390;2023-03-08T11:22:24;11.30;;;10.30;;
20535;SDS011;10426;49.420;8.390;2023-03-08T11:25:12;11.80;;;10.70;;
20535;SDS011;10426;49.420;8.390;2023-03-08T11:27:43;11.20;;;10.20;;
20535;SDS011;10426;49.420;8.390;2023-03-08T11:30:17;12.35;;;9.98;;
20535;SDS011;10426;49.420;8.390;2023-03-08T11:32:48;11.20;;;10.20;;
20535;SDS011;10426;49.420;8.390;2023-03-08T11:35:21;11.07;;;10.00;;
20535;SDS011;10426;49.420;8.390;2023-03-08T11:37:52;10.82;;;9.82;;
20535;SDS011;10426;49.420;8.390;2023-03-08T11:40:22;11.10;;;10.10;;
20535;SDS011;10426;49.420;8.390;2023-03-08T11:42:57;10.98;;;10.07;;
20535;SDS011;10426;49.420;8.390;2023-03-08T11:45:26;14.02;;;12.52;;
20535;SDS011;10426;49.420;8.390;2023-03-08T11:48:04;14.43;;;12.93;;
20535;SDS011;10426;49.420;8.390;2023-03-08T11:50:33;11.15;;;10.10;;
20535;SDS011;10426;49.420;8.390;2023-03-08T11:53:04;11.43;;;10.32;;
20535;SDS011;10426;49.420;8.390;2023-03-08T11:55:38;12.02;;;10.82;;
20535;SDS011;10426;49.420;8.390;2023-03-08T11:58:08;11.00;;;10.00;;
20535;SDS011;10426;49.420;8.390;2023-03-08T12:00:38;22.85;;;15.68;;
20535;SDS011;10426;49.420;8.390;2023-03-08T12:03:07;11.57;;;10.50;;
20535;SDS011;10426;49.420;8.390;2023-03-08T12:05:37;11.10;;;10.07;;
20535;SDS011;10426;49.420;8.390;2023-03-08T12:08:10;10.80;;;9.70;;
20535;SDS011;10426;49.420;8.390;2023-03-08T12:10:41;10.20;;;9.27;;
20535;SDS011;10426;49.420;8.390;2023-03-08T12:13:12;10.90;;;9.73;;
20535;SDS011;10426;49.420;8.390;2023-03-08T12:15:43;10.77;;;9.77;;
20535;SDS011;10426;49.420;8.390;2023-03-08T12:18:12;10.40;;;9.50;;
20535;SDS011;10426;49.420;8.390;2023-03-08T12:20:41;11.10;;;10.15;;
20535;SDS011;10426;49.420;8.390;2023-03-08T12:23:10;11.13;;;10.13;;
20535;SDS011;10426;49.420;8.390;2023-03-08T12:25:40;10.57;;;9.57;;
20535;SDS011;10426;49.420;8.390;2023-03-08T12:28:11;11.20;;;10.20;;
20535;SDS011;10426;49.420;8.390;2023-03-08T12:30:41;9.85;;;8.90;;
20535;SDS011;10426;49.420;8.390;2023-03-08T12:33:10;10.88;;;9.88;;
20535;SDS011;10426;49.420;8.390;2023-03-08T12:35:48;12.50;;;10.20;;
20535;SDS011;10426;49.420;8.390;2023-03-08T12:38:27;11.57;;;10.57;;
20535;SDS011;10426;49.420;8.390;2023-03-08T12:40:56;10.52;;;9.50;;
20535;SDS011;10426;49.420;8.390;2023-03-08T12:43:30;10.48;;;9.48;;
20535;SDS011;10426;49.420;8.390;2023-03-08T12:46:00;9.70;;;8.80;;
20535;SDS011;10426;49.420;8.390;2023-03-08T12:48:28;10.17;;;9.23;;
20535;SDS011;10426;49.420;8.390;2023-03-08T12:50:57;9.00;;;8.10;;
20535;SDS011;10426;49.420;8.390;2023-03-08T12:53:27;8.83;;;8.13;;
20535;SDS011;10426;49.420;8.390;2023-03-08T12:55:59;8.95;;;8.15;;
20535;SDS011;10426;49.420;8.390;2023-03-08T12:58:26;8.02;;;7.22;;
20535;SDS011;10426;49.420;8.390;2023-03-08T13:00:56;7.50;;;6.80;;
20535;SDS011;10426;49.420;8.390;2023-03-08T13:03:25;7.40;;;6.80;;
20535;SDS011;10426;49.420;8.390;2023-03-08T13:05:52;6.75;;;6.25;;
20535;SDS011;10426;49.420;8.390;2023-03-08T13:08:21;6.93;;;6.32;;
20535;SDS011;10426;49.420;8.390;2023-03-08T13:10:55;6.63;;;6.05;;
20535;SDS011;10426;49.420;8.390;2023-03-08T13:13:25;5.53;;;5.07;;
20535;SDS011;10426;49.420;8.390;2023-03-08T13:16:03;5.18;;;4.78;;
20535;SDS011;10426;49.420;8.390;2023-03-08T13:18:29;4.55;;;4.25;;
20535;SDS011;10426;49.420;8.390;2023-03-08T13:21:02;4.30;;;4.00;;
20535;SDS011;10426;49.420;8.390;2023-03-08T13:23:33;5.80;;;3.75;;
20535;SDS011;10426;49.420;8.390;2023-03-08T13:26:10;3.27;;;3.03;;
20535;SDS011;10426;49.420;8.390;2023-03-08T13:28:41;3.40;;;3.20;;
20535;SDS011;10426;49.420;8.390;2023-03-08T13:31:11;3.03;;;2.80;;
20535;SDS011;10426;49.420;8.390;2023-03-08T13:33:39;3.20;;;3.00;;
20535;SDS011;10426;49.420;8.390;2023-03-08T13:36:14;3.45;;;3.22;;
20535;SDS011;10426;49.420;8.390;2023-03-08T13:38:41;3.08;;;2.90;;
20535;SDS011;10426;49.420;8.390;2023-03-08T13:41:08;3.20;;;3.00;;
20535;SDS011;10426;49.420;8.390;2023-03-08T13:43:35;3.45;;;3.15;;
20535;SDS011;10426;49.420;8.390;2023-03-08T13:46:03;2.85;;;2.65;;
20535;SDS011;10426;49.420;8.390;2023-03-08T13:48:31;3.22;;;2.58;;
20535;SDS011;10426;49.420;8.390;2023-03-08T13:50:59;2.78;;;2.58;;
20535;SDS011;10426;49.420;8.390;2023-03-08T13:53:26;3.10;;;2.60;;
20535;SDS011;10426;49.420;8.390;2023-03-08T13:55:55;2.78;;;1.73;;
20535;SDS011;10426;49.420;8.390;2023-03-08T13:58:27;1.95;;;1.80;;
20535;SDS011;10426;49.420;8.390;2023-03-08T14:00:57;2.35;;;1.80;;
20535;SDS011;10426;49.420;8.390;2023-03-08T14:03:25;2.00;;;1.80;;
20535;SDS011;10426;49.420;8.390;2023-03-08T14:05:53;2.05;;;1.85;;
20535;SDS011;10426;49.420;8.390;2023-03-08T14:08:20;1.77;;;1.67;;
20535;SDS011;10426;49.420;8.390;2023-03-08T14:10:48;4.63;;;1.77;;
20535;SDS011;10426;49.420;8.390;2023-03-08T14:13:16;2.22;;;1.70;;
20535;SDS011;10426;49.420;8.390;2023-03-08T14:15:47;1.58;;;1.20;;
20535;SDS011;10426;49.420;8.390;2023-03-08T14:18:18;1.77;;;1.50;;
20535;SDS011;10426;49.420;8.390;2023-03-08T14:20:58;1.30;;;1.20;;
20535;SDS011;10426;49.420;8.390;2023-03-08T14:23:25;1.67;;;1.33;;
20535;SDS011;10426;49.420;8.390;2023-03-08T14:25:54;1.13;;;1.13;;
20535;SDS011;10426;49.420;8.390;2023-03-08T14:28:34;1.23;;;1.20;;
20535;SDS011;10426;49.420;8.390;2023-03-08T14:31:01;1.42;;;1.33;;
20535;SDS011;10426;49.420;8.390;2023-03-08T14:33:27;1.30;;;1.30;;
20535;SDS011;10426;49.420;8.390;2023-03-08T14:35:55;1.50;;;1.30;;
20535;SDS011;10426;49.420;8.390;2023-03-08T14:38:25;1.63;;;1.50;;
20535;SDS011;10426;49.420;8.390;2023-03-08T14:40:53;2.10;;;1.33;;
20535;SDS011;10426;49.420;8.390;2023-03-08T14:43:21;1.90;;;1.40;;
20535;SDS011;10426;49.420;8.390;2023-03-08T14:45:51;1.65;;;1.55;;